sensor_id;sensor_type;location;lat;lon;timestamp;P1;durP1;ratioP1;P2;durP2;ratioP2
41875;SDS011;27555;50.808;4.402;2022-08-19T00:01:28;11.82;;;8.95;;
41875;SDS011;27555;50.808;4.402;2022-08-19T00:03:58;10.60;;;8.20;;
41875;SDS011;27555;50.808;4.402;2022-08-19T00:06:26;12.95;;;9.80;;
41875;SDS011;27555;50.808;4.402;2022-08-19T00:08:54;21.15;;;11.70;;
41875;SDS011;27555;50.808;4.402;2022-08-19T00:11:20;18.58;;;12.15;;
41875;SDS011;27555;50.808;4.402;2022-08-19T00:13:46;15.95;;;11.88;;
41875;SDS011;27555;50.808;4.402;2022-08-19T00:16:13;26.92;;;16.77;;
41875;SDS011;27555;50.808;4.402;2022-08-19T00:18:39;23.20;;;18.20;;
41875;SDS011;27555;50.808;4.402;2022-08-19T00:21:05;27.92;;;20.65;;
41875;SDS011;27555;50.808;4.402;2022-08-19T00:23:33;19.58;;;14.23;;
41875;SDS011;27555;50.808;4.402;2022-08-19T00:26:01;18.02;;;12.10;;
41875;SDS011;27555;50.808;4.402;2022-08-19T00:28:29;16.77;;;12.43;;
41875;SDS011;27555;50.808;4.402;2022-08-19T00:30:55;21.80;;;15.25;;
41875;SDS011;27555;50.808;4.402;2022-08-19T00:33:21;20.25;;;15.60;;
41875;SDS011;27555;50.808;4.402;2022-08-19T00:35:47;32.17;;;21.63;;
41875;SDS011;27555;50.808;4.402;2022-08-19T00:38:13;39.45;;;26.98;;
41875;SDS011;27555;50.808;4.402;2022-08-19T00:40:39;42.17;;;30.15;;
41875;SDS011;27555;50.808;4.402;2022-08-19T00:43:08;44.13;;;30.88;;
41875;SDS011;27555;50.808;4.402;2022-08-19T00:45:34;45.72;;;27.73;;
41875;SDS011;27555;50.808;4.402;2022-08-19T00:48:01;44.72;;;26.83;;
41875;SDS011;27555;50.808;4.402;2022-08-19T00:50:29;47.88;;;31.02;;
41875;SDS011;27555;50.808;4.402;2022-08-19T00:52:55;47.22;;;30.92;;
41875;SDS011;27555;50.808;4.402;2022-08-19T00:55:23;48.10;;;29.95;;
41875;SDS011;27555;50.808;4.402;2022-08-19T00:58:01;48.30;;;30.88;;
41875;SDS011;27555;50.808;4.402;2022-08-19T01:00:31;48.97;;;30.77;;
41875;SDS011;27555;50.808;4.402;2022-08-19T01:03:00;48.80;;;31.85;;
41875;SDS011;27555;50.808;4.402;2022-08-19T01:05:26;48.22;;;31.50;;
41875;SDS011;27555;50.808;4.402;2022-08-19T01:07:54;48.65;;;31.85;;
41875;SDS011;27555;50.808;4.402;2022-08-19T01:10:26;37.80;;;25.05;;
41875;SDS011;27555;50.808;4.402;2022-08-19T01:12:54;32.25;;;23.20;;
41875;SDS011;27555;50.808;4.402;2022-08-19T01:15:23;29.08;;;21.13;;
41875;SDS011;27555;50.808;4.402;2022-08-19T01:17:53;34.25;;;21.25;;
41875;SDS011;27555;50.808;4.402;2022-08-19T01:20:22;32.03;;;22.10;;
41875;SDS011;27555;50.808;4.402;2022-08-19T01:22:51;35.47;;;24.38;;
41875;SDS011;27555;50.808;4.402;2022-08-19T01:25:20;39.17;;;24.95;;
41875;SDS011;27555;50.808;4.402;2022-08-19T01:27:49;30.85;;;22.42;;
41875;SDS011;27555;50.808;4.402;2022-08-19T01:30:20;34.40;;;23.63;;
41875;SDS011;27555;50.808;4.402;2022-08-19T01:32:49;33.97;;;23.52;;
41875;SDS011;27555;50.808;4.402;2022-08-19T01:35:16;34.53;;;22.98;;
41875;SDS011;27555;50.808;4.402;2022-08-19T01:37:53;35.03;;;23.52;;
41875;SDS011;27555;50.808;4.402;2022-08-19T01:40:22;33.75;;;24.00;;
41875;SDS011;27555;50.808;4.402;2022-08-19T01:42:51;32.97;;;23.88;;
41875;SDS011;27555;50.808;4.402;2022-08-19T01:45:18;33.28;;;23.42;;
41875;SDS011;27555;50.808;4.402;2022-08-19T01:47:46;33.58;;;24.60;;
41875;SDS011;27555;50.808;4.402;2022-08-19T01:50:11;36.20;;;26.20;;
41875;SDS011;27555;50.808;4.402;2022-08-19T01:52:38;31.23;;;24.17;;
41875;SDS011;27555;50.808;4.402;2022-08-19T01:55:05;32.33;;;24.40;;
41875;SDS011;27555;50.808;4.402;2022-08-19T01:57:34;32.70;;;24.02;;
41875;SDS011;27555;50.808;4.402;2022-08-19T02:00:03;34.22;;;24.55;;
41875;SDS011;27555;50.808;4.402;2022-08-19T02:02:33;29.77;;;22.67;;
41875;SDS011;27555;50.808;4.402;2022-08-19T02:05:00;36.35;;;23.45;;
41875;SDS011;27555;50.808;4.402;2022-08-19T02:07:26;35.67;;;23.17;;
41875;SDS011;27555;50.808;4.402;2022-08-19T02:09:55;26.38;;;22.02;;
41875;SDS011;27555;50.808;4.402;2022-08-19T02:12:21;28.65;;;21.15;;
41875;SDS011;27555;50.808;4.402;2022-08-19T02:14:47;30.58;;;20.80;;
41875;SDS011;27555;50.808;4.402;2022-08-19T02:17:15;25.50;;;19.75;;
41875;SDS011;27555;50.808;4.402;2022-08-19T02:19:41;26.98;;;20.67;;
41875;SDS011;27555;50.808;4.402;2022-08-19T02:22:09;33.53;;;23.05;;
41875;SDS011;27555;50.808;4.402;2022-08-19T02:24:35;30.63;;;23.17;;
41875;SDS011;27555;50.808;4.402;2022-08-19T02:27:00;33.88;;;22.80;;
41875;SDS011;27555;50.808;4.402;2022-08-19T02:29:27;33.08;;;21.95;;
41875;SDS011;27555;50.808;4.402;2022-08-19T02:31:52;32.30;;;22.63;;
41875;SDS011;27555;50.808;4.402;2022-08-19T02:34:18;32.05;;;21.75;;
41875;SDS011;27555;50.808;4.402;2022-08-19T02:36:44;28.17;;;22.00;;
41875;SDS011;27555;50.808;4.402;2022-08-19T02:39:09;25.48;;;20.83;;
41875;SDS011;27555;50.808;4.402;2022-08-19T02:41:35;30.65;;;21.67;;
41875;SDS011;27555;50.808;4.402;2022-08-19T02:44:02;34.03;;;21.88;;
41875;SDS011;27555;50.808;4.402;2022-08-19T02:46:30;32.45;;;21.15;;
41875;SDS011;27555;50.808;4.402;2022-08-19T02:48:58;29.88;;;20.80;;
41875;SDS011;27555;50.808;4.402;2022-08-19T02:51:30;31.15;;;20.67;;
41875;SDS011;27555;50.808;4.402;2022-08-19T02:53:58;30.52;;;20.98;;
41875;SDS011;27555;50.808;4.402;2022-08-19T02:56:25;29.08;;;20.27;;
41875;SDS011;27555;50.808;4.402;2022-08-19T02:58:52;30.95;;;20.70;;
41875;SDS011;27555;50.808;4.402;2022-08-19T03:01:27;26.98;;;19.20;;
41875;SDS011;27555;50.808;4.402;2022-08-19T03:03:56;31.27;;;20.50;;
41875;SDS011;27555;50.808;4.402;2022-08-19T03:06:36;32.72;;;20.25;;
41875;SDS011;27555;50.808;4.402;2022-08-19T03:09:06;27.58;;;19.25;;
41875;SDS011;27555;50.808;4.402;2022-08-19T03:11:33;27.15;;;18.27;;
41875;SDS011;27555;50.808;4.402;2022-08-19T03:14:00;27.17;;;18.85;;
41875;SDS011;27555;50.808;4.402;2022-08-19T03:16:28;29.85;;;19.88;;
41875;SDS011;27555;50.808;4.402;2022-08-19T03:18:56;31.52;;;20.10;;
41875;SDS011;27555;50.808;4.402;2022-08-19T03:21:25;32.67;;;19.58;;
41875;SDS011;27555;50.808;4.402;2022-08-19T03:23:59;28.73;;;18.17;;
41875;SDS011;27555;50.808;4.402;2022-08-19T03:26:27;24.08;;;18.45;;
41875;SDS011;27555;50.808;4.402;2022-08-19T03:28:53;27.15;;;18.38;;
41875;SDS011;27555;50.808;4.402;2022-08-19T03:31:20;26.08;;;18.67;;
41875;SDS011;27555;50.808;4.402;2022-08-19T03:33:47;33.47;;;18.30;;
41875;SDS011;27555;50.808;4.402;2022-08-19T03:36:15;30.58;;;18.83;;
41875;SDS011;27555;50.808;4.402;2022-08-19T03:38:44;25.23;;;16.95;;
41875;SDS011;27555;50.808;4.402;2022-08-19T03:41:13;29.25;;;17.02;;
41875;SDS011;27555;50.808;4.402;2022-08-19T03:43:41;26.10;;;17.33;;
41875;SDS011;27555;50.808;4.402;2022-08-19T03:46:08;27.13;;;16.65;;
41875;SDS011;27555;50.808;4.402;2022-08-19T03:48:37;30.23;;;18.38;;
41875;SDS011;27555;50.808;4.402;2022-08-19T03:51:05;26.13;;;17.27;;
41875;SDS011;27555;50.808;4.402;2022-08-19T03:53:32;30.23;;;18.08;;
41875;SDS011;27555;50.808;4.402;2022-08-19T03:55:59;26.60;;;18.23;;
41875;SDS011;27555;50.808;4.402;2022-08-19T03:58:26;29.65;;;18.55;;
41875;SDS011;27555;50.808;4.402;2022-08-19T04:00:54;30.45;;;19.65;;
41875;SDS011;27555;50.808;4.402;2022-08-19T04:03:21;34.58;;;19.33;;
41875;SDS011;27555;50.808;4.402;2022-08-19T04:05:47;32.08;;;18.33;;
41875;SDS011;27555;50.808;4.402;2022-08-19T04:08:13;43.65;;;19.05;;
41875;SDS011;27555;50.808;4.402;2022-08-19T04:10:44;34.00;;;19.23;;
41875;SDS011;27555;50.808;4.402;2022-08-19T04:13:09;32.70;;;19.90;;
41875;SDS011;27555;50.808;4.402;2022-08-19T04:15:38;31.40;;;19.42;;
41875;SDS011;27555;50.808;4.402;2022-08-19T04:18:09;28.70;;;19.13;;
41875;SDS011;27555;50.808;4.402;2022-08-19T04:20:39;32.67;;;18.92;;
41875;SDS011;27555;50.808;4.402;2022-08-19T04:23:10;35.75;;;18.88;;
41875;SDS011;27555;50.808;4.402;2022-08-19T04:25:41;30.40;;;17.55;;
41875;SDS011;27555;50.808;4.402;2022-08-19T04:28:09;37.72;;;18.88;;
41875;SDS011;27555;50.808;4.402;2022-08-19T04:30:37;30.38;;;18.30;;
41875;SDS011;27555;50.808;4.402;2022-08-19T04:33:07;28.75;;;17.55;;
41875;SDS011;27555;50.808;4.402;2022-08-19T04:35:35;30.98;;;17.63;;
41875;SDS011;27555;50.808;4.402;2022-08-19T04:38:05;28.33;;;18.50;;
41875;SDS011;27555;50.808;4.402;2022-08-19T04:40:31;35.75;;;18.55;;
41875;SDS011;27555;50.808;4.402;2022-08-19T04:43:15;40.85;;;19.17;;
41875;SDS011;27555;50.808;4.402;2022-08-19T04:45:44;29.50;;;18.02;;
41875;SDS011;27555;50.808;4.402;2022-08-19T04:48:11;34.40;;;18.23;;
41875;SDS011;27555;50.808;4.402;2022-08-19T04:50:39;27.17;;;17.65;;
41875;SDS011;27555;50.808;4.402;2022-08-19T04:53:06;34.63;;;17.95;;
41875;SDS011;27555;50.808;4.402;2022-08-19T04:55:32;25.75;;;17.15;;
41875;SDS011;27555;50.808;4.402;2022-08-19T04:57:58;27.98;;;18.33;;
41875;SDS011;27555;50.808;4.402;2022-08-19T05:00:24;27.92;;;17.15;;
41875;SDS011;27555;50.808;4.402;2022-08-19T05:02:50;32.00;;;18.77;;
41875;SDS011;27555;50.808;4.402;2022-08-19T05:05:16;28.77;;;17.38;;
41875;SDS011;27555;50.808;4.402;2022-08-19T05:07:42;32.00;;;19.77;;
41875;SDS011;27555;50.808;4.402;2022-08-19T05:10:07;27.27;;;16.70;;
41875;SDS011;27555;50.808;4.402;2022-08-19T05:12:33;32.08;;;18.95;;
41875;SDS011;27555;50.808;4.402;2022-08-19T05:14:59;32.85;;;19.45;;
41875;SDS011;27555;50.808;4.402;2022-08-19T05:17:26;27.40;;;18.38;;
41875;SDS011;27555;50.808;4.402;2022-08-19T05:19:52;38.20;;;20.45;;
41875;SDS011;27555;50.808;4.402;2022-08-19T05:22:36;30.90;;;17.83;;
41875;SDS011;27555;50.808;4.402;2022-08-19T05:25:06;28.98;;;18.42;;
41875;SDS011;27555;50.808;4.402;2022-08-19T05:27:34;32.00;;;18.23;;
41875;SDS011;27555;50.808;4.402;2022-08-19T05:29:59;28.98;;;18.85;;
41875;SDS011;27555;50.808;4.402;2022-08-19T05:32:26;28.52;;;18.15;;
41875;SDS011;27555;50.808;4.402;2022-08-19T05:34:52;29.00;;;18.60;;
41875;SDS011;27555;50.808;4.402;2022-08-19T05:37:18;34.97;;;19.02;;
41875;SDS011;27555;50.808;4.402;2022-08-19T05:39:43;31.02;;;18.50;;
41875;SDS011;27555;50.808;4.402;2022-08-19T05:42:09;27.50;;;17.83;;
41875;SDS011;27555;50.808;4.402;2022-08-19T05:44:38;27.80;;;18.17;;
41875;SDS011;27555;50.808;4.402;2022-08-19T05:47:09;30.45;;;18.05;;
41875;SDS011;27555;50.808;4.402;2022-08-19T05:49:35;26.30;;;17.00;;
41875;SDS011;27555;50.808;4.402;2022-08-19T05:52:05;28.35;;;16.65;;
41875;SDS011;27555;50.808;4.402;2022-08-19T05:54:32;24.50;;;15.30;;
41875;SDS011;27555;50.808;4.402;2022-08-19T05:56:59;25.55;;;16.08;;
41875;SDS011;27555;50.808;4.402;2022-08-19T05:59:25;26.63;;;13.70;;
41875;SDS011;27555;50.808;4.402;2022-08-19T06:01:51;22.73;;;14.05;;
41875;SDS011;27555;50.808;4.402;2022-08-19T06:04:19;18.70;;;12.55;;
41875;SDS011;27555;50.808;4.402;2022-08-19T06:06:46;20.63;;;11.05;;
41875;SDS011;27555;50.808;4.402;2022-08-19T06:09:13;18.70;;;10.93;;
41875;SDS011;27555;50.808;4.402;2022-08-19T06:11:43;17.23;;;10.60;;
41875;SDS011;27555;50.808;4.402;2022-08-19T06:14:12;18.20;;;9.90;;
41875;SDS011;27555;50.808;4.402;2022-08-19T06:16:40;16.13;;;10.38;;
41875;SDS011;27555;50.808;4.402;2022-08-19T06:19:08;16.40;;;9.48;;
41875;SDS011;27555;50.808;4.402;2022-08-19T06:21:40;23.77;;;9.57;;
41875;SDS011;27555;50.808;4.402;2022-08-19T06:24:09;18.70;;;9.43;;
41875;SDS011;27555;50.808;4.402;2022-08-19T06:26:37;18.98;;;9.95;;
41875;SDS011;27555;50.808;4.402;2022-08-19T06:29:05;15.23;;;9.10;;
41875;SDS011;27555;50.808;4.402;2022-08-19T06:31:32;19.15;;;9.15;;
41875;SDS011;27555;50.808;4.402;2022-08-19T06:33:59;13.77;;;7.95;;
41875;SDS011;27555;50.808;4.402;2022-08-19T06:36:28;20.35;;;7.90;;
41875;SDS011;27555;50.808;4.402;2022-08-19T06:38:59;18.17;;;8.35;;
41875;SDS011;27555;50.808;4.402;2022-08-19T06:41:28;12.13;;;7.00;;
41875;SDS011;27555;50.808;4.402;2022-08-19T06:43:55;13.10;;;7.60;;
41875;SDS011;27555;50.808;4.402;2022-08-19T06:46:21;18.92;;;6.78;;
41875;SDS011;27555;50.808;4.402;2022-08-19T06:48:48;11.02;;;6.05;;
41875;SDS011;27555;50.808;4.402;2022-08-19T06:51:15;16.90;;;7.90;;
41875;SDS011;27555;50.808;4.402;2022-08-19T06:53:44;15.90;;;6.57;;
41875;SDS011;27555;50.808;4.402;2022-08-19T06:58:40;11.60;;;5.75;;
41875;SDS011;27555;50.808;4.402;2022-08-19T07:01:06;11.95;;;5.43;;
41875;SDS011;27555;50.808;4.402;2022-08-19T07:03:33;11.35;;;6.30;;
41875;SDS011;27555;50.808;4.402;2022-08-19T07:06:04;13.57;;;6.00;;
41875;SDS011;27555;50.808;4.402;2022-08-19T07:08:36;14.82;;;6.70;;
41875;SDS011;27555;50.808;4.402;2022-08-19T07:11:05;10.43;;;5.43;;
41875;SDS011;27555;50.808;4.402;2022-08-19T07:13:34;11.93;;;6.07;;
41875;SDS011;27555;50.808;4.402;2022-08-19T07:16:05;13.95;;;5.53;;
41875;SDS011;27555;50.808;4.402;2022-08-19T07:18:35;18.52;;;6.22;;
41875;SDS011;27555;50.808;4.402;2022-08-19T07:21:02;19.05;;;6.30;;
41875;SDS011;27555;50.808;4.402;2022-08-19T07:23:35;15.63;;;6.65;;
41875;SDS011;27555;50.808;4.402;2022-08-19T07:26:08;19.00;;;7.18;;
41875;SDS011;27555;50.808;4.402;2022-08-19T07:28:39;15.35;;;6.85;;
41875;SDS011;27555;50.808;4.402;2022-08-19T07:31:06;15.88;;;6.22;;
41875;SDS011;27555;50.808;4.402;2022-08-19T07:33:32;11.18;;;6.07;;
41875;SDS011;27555;50.808;4.402;2022-08-19T07:36:00;10.90;;;6.25;;
41875;SDS011;27555;50.808;4.402;2022-08-19T07:38:27;16.40;;;6.40;;
41875;SDS011;27555;50.808;4.402;2022-08-19T07:40:53;14.02;;;6.43;;
41875;SDS011;27555;50.808;4.402;2022-08-19T07:43:19;14.63;;;6.38;;
41875;SDS011;27555;50.808;4.402;2022-08-19T07:45:45;10.93;;;5.43;;
41875;SDS011;27555;50.808;4.402;2022-08-19T07:48:11;10.48;;;5.68;;
41875;SDS011;27555;50.808;4.402;2022-08-19T07:50:37;12.05;;;5.88;;
41875;SDS011;27555;50.808;4.402;2022-08-19T07:53:03;10.65;;;5.63;;
41875;SDS011;27555;50.808;4.402;2022-08-19T07:55:29;9.95;;;5.03;;
41875;SDS011;27555;50.808;4.402;2022-08-19T07:57:54;13.85;;;5.38;;
41875;SDS011;27555;50.808;4.402;2022-08-19T08:00:20;10.07;;;5.65;;
41875;SDS011;27555;50.808;4.402;2022-08-19T08:02:46;10.68;;;5.68;;
41875;SDS011;27555;50.808;4.402;2022-08-19T08:05:11;8.75;;;5.07;;
41875;SDS011;27555;50.808;4.402;2022-08-19T08:07:55;11.43;;;5.55;;
41875;SDS011;27555;50.808;4.402;2022-08-19T08:10:39;9.70;;;4.88;;
41875;SDS011;27555;50.808;4.402;2022-08-19T08:13:06;12.15;;;4.68;;
41875;SDS011;27555;50.808;4.402;2022-08-19T08:15:32;13.25;;;5.38;;
41875;SDS011;27555;50.808;4.402;2022-08-19T08:17:58;16.67;;;4.25;;
41875;SDS011;27555;50.808;4.402;2022-08-19T08:20:23;11.38;;;4.03;;
41875;SDS011;27555;50.808;4.402;2022-08-19T08:22:49;11.18;;;4.22;;
41875;SDS011;27555;50.808;4.402;2022-08-19T08:25:34;11.68;;;4.18;;
41875;SDS011;27555;50.808;4.402;2022-08-19T08:28:00;12.15;;;3.97;;
41875;SDS011;27555;50.808;4.402;2022-08-19T08:30:27;17.00;;;4.40;;
41875;SDS011;27555;50.808;4.402;2022-08-19T08:32:54;10.85;;;4.07;;
41875;SDS011;27555;50.808;4.402;2022-08-19T08:35:21;8.52;;;4.07;;
41875;SDS011;27555;50.808;4.402;2022-08-19T08:37:48;11.70;;;3.85;;
41875;SDS011;27555;50.808;4.402;2022-08-19T08:43:03;7.28;;;3.50;;
41875;SDS011;27555;50.808;4.402;2022-08-19T08:45:55;7.72;;;2.70;;
41875;SDS011;27555;50.808;4.402;2022-08-19T08:48:40;8.05;;;3.30;;
41875;SDS011;27555;50.808;4.402;2022-08-19T08:51:33;5.40;;;3.65;;
41875;SDS011;27555;50.808;4.402;2022-08-19T08:54:10;7.60;;;3.38;;
41875;SDS011;27555;50.808;4.402;2022-08-19T08:56:39;3.88;;;3.15;;
41875;SDS011;27555;50.808;4.402;2022-08-19T08:59:10;8.82;;;3.03;;
41875;SDS011;27555;50.808;4.402;2022-08-19T09:01:46;10.82;;;3.97;;
41875;SDS011;27555;50.808;4.402;2022-08-19T09:04:13;6.68;;;3.80;;
41875;SDS011;27555;50.808;4.402;2022-08-19T09:06:53;10.88;;;3.97;;
41875;SDS011;27555;50.808;4.402;2022-08-19T09:09:36;7.75;;;3.15;;
41875;SDS011;27555;50.808;4.402;2022-08-19T09:12:16;10.52;;;3.22;;
41875;SDS011;27555;50.808;4.402;2022-08-19T09:14:49;8.35;;;4.00;;
41875;SDS011;27555;50.808;4.402;2022-08-19T09:17:19;17.15;;;4.03;;
41875;SDS011;27555;50.808;4.402;2022-08-19T09:20:00;9.30;;;4.03;;
41875;SDS011;27555;50.808;4.402;2022-08-19T09:22:31;7.80;;;3.53;;
41875;SDS011;27555;50.808;4.402;2022-08-19T09:24:57;14.10;;;4.00;;
41875;SDS011;27555;50.808;4.402;2022-08-19T09:27:23;11.10;;;3.15;;
41875;SDS011;27555;50.808;4.402;2022-08-19T09:29:54;9.38;;;4.05;;
41875;SDS011;27555;50.808;4.402;2022-08-19T09:32:20;8.55;;;4.10;;
41875;SDS011;27555;50.808;4.402;2022-08-19T09:34:46;6.03;;;3.33;;
41875;SDS011;27555;50.808;4.402;2022-08-19T09:37:13;6.53;;;3.00;;
41875;SDS011;27555;50.808;4.402;2022-08-19T09:39:39;7.25;;;3.45;;
41875;SDS011;27555;50.808;4.402;2022-08-19T09:42:06;6.60;;;3.67;;
41875;SDS011;27555;50.808;4.402;2022-08-19T09:44:37;6.93;;;3.75;;
41875;SDS011;27555;50.808;4.402;2022-08-19T09:47:03;8.77;;;4.20;;
41875;SDS011;27555;50.808;4.402;2022-08-19T09:49:29;6.63;;;3.95;;
41875;SDS011;27555;50.808;4.402;2022-08-19T09:51:56;6.78;;;4.03;;
41875;SDS011;27555;50.808;4.402;2022-08-19T09:54:22;10.95;;;4.30;;
41875;SDS011;27555;50.808;4.402;2022-08-19T09:56:48;5.72;;;3.70;;
41875;SDS011;27555;50.808;4.402;2022-08-19T09:59:14;9.45;;;4.15;;
41875;SDS011;27555;50.808;4.402;2022-08-19T10:01:40;6.30;;;3.67;;
41875;SDS011;27555;50.808;4.402;2022-08-19T10:04:06;7.75;;;3.65;;
41875;SDS011;27555;50.808;4.402;2022-08-19T10:06:36;7.20;;;3.88;;
41875;SDS011;27555;50.808;4.402;2022-08-19T10:09:03;7.35;;;3.65;;
41875;SDS011;27555;50.808;4.402;2022-08-19T10:11:31;4.32;;;3.42;;
41875;SDS011;27555;50.808;4.402;2022-08-19T10:13:58;5.03;;;3.38;;
41875;SDS011;27555;50.808;4.402;2022-08-19T10:16:25;5.60;;;3.17;;
41875;SDS011;27555;50.808;4.402;2022-08-19T10:18:51;7.65;;;3.20;;
41875;SDS011;27555;50.808;4.402;2022-08-19T10:23:46;7.55;;;3.90;;
41875;SDS011;27555;50.808;4.402;2022-08-19T10:26:15;7.22;;;3.80;;
41875;SDS011;27555;50.808;4.402;2022-08-19T10:28:45;7.68;;;4.07;;
41875;SDS011;27555;50.808;4.402;2022-08-19T10:31:13;7.03;;;3.55;;
41875;SDS011;27555;50.808;4.402;2022-08-19T10:33:42;7.07;;;4.25;;
41875;SDS011;27555;50.808;4.402;2022-08-19T10:36:10;8.82;;;5.43;;
41875;SDS011;27555;50.808;4.402;2022-08-19T10:38:41;7.43;;;4.97;;
41875;SDS011;27555;50.808;4.402;2022-08-19T10:41:17;7.03;;;4.95;;
41875;SDS011;27555;50.808;4.402;2022-08-19T10:43:44;8.75;;;4.32;;
41875;SDS011;27555;50.808;4.402;2022-08-19T10:46:12;7.18;;;5.05;;
41875;SDS011;27555;50.808;4.402;2022-08-19T10:51:06;9.63;;;4.82;;
41875;SDS011;27555;50.808;4.402;2022-08-19T10:53:50;11.10;;;5.50;;
41875;SDS011;27555;50.808;4.402;2022-08-19T10:56:17;8.57;;;5.65;;
41875;SDS011;27555;50.808;4.402;2022-08-19T10:59:02;8.35;;;4.85;;
41875;SDS011;27555;50.808;4.402;2022-08-19T11:01:29;9.57;;;5.80;;
41875;SDS011;27555;50.808;4.402;2022-08-19T11:03:55;8.27;;;5.85;;
41875;SDS011;27555;50.808;4.402;2022-08-19T11:06:24;9.85;;;5.57;;
41875;SDS011;27555;50.808;4.402;2022-08-19T11:08:50;10.73;;;5.45;;
41875;SDS011;27555;50.808;4.402;2022-08-19T11:11:19;7.63;;;5.20;;
41875;SDS011;27555;50.808;4.402;2022-08-19T11:13:48;10.38;;;5.50;;
41875;SDS011;27555;50.808;4.402;2022-08-19T11:16:18;7.95;;;6.00;;
41875;SDS011;27555;50.808;4.402;2022-08-19T11:18:47;10.65;;;6.40;;
41875;SDS011;27555;50.808;4.402;2022-08-19T11:21:16;7.38;;;5.75;;
41875;SDS011;27555;50.808;4.402;2022-08-19T11:23:58;9.63;;;5.65;;
41875;SDS011;27555;50.808;4.402;2022-08-19T11:26:31;8.82;;;5.85;;
41875;SDS011;27555;50.808;4.402;2022-08-19T11:28:58;9.63;;;6.75;;
41875;SDS011;27555;50.808;4.402;2022-08-19T11:31:29;8.43;;;6.00;;
41875;SDS011;27555;50.808;4.402;2022-08-19T11:33:56;13.02;;;6.53;;
41875;SDS011;27555;50.808;4.402;2022-08-19T11:36:24;9.63;;;6.00;;
41875;SDS011;27555;50.808;4.402;2022-08-19T11:38:51;11.02;;;6.45;;
41875;SDS011;27555;50.808;4.402;2022-08-19T11:41:17;10.88;;;6.50;;
41875;SDS011;27555;50.808;4.402;2022-08-19T11:43:44;6.22;;;5.43;;
41875;SDS011;27555;50.808;4.402;2022-08-19T11:46:11;8.00;;;5.28;;
41875;SDS011;27555;50.808;4.402;2022-08-19T11:48:39;10.20;;;5.27;;
41875;SDS011;27555;50.808;4.402;2022-08-19T11:51:06;8.93;;;5.43;;
41875;SDS011;27555;50.808;4.402;2022-08-19T11:53:35;8.23;;;5.28;;
41875;SDS011;27555;50.808;4.402;2022-08-19T11:56:01;9.38;;;4.82;;
41875;SDS011;27555;50.808;4.402;2022-08-19T11:58:28;7.03;;;4.50;;
41875;SDS011;27555;50.808;4.402;2022-08-19T12:00:56;9.33;;;4.90;;
41875;SDS011;27555;50.808;4.402;2022-08-19T12:03:22;10.23;;;5.38;;
41875;SDS011;27555;50.808;4.402;2022-08-19T12:05:48;9.07;;;4.40;;
41875;SDS011;27555;50.808;4.402;2022-08-19T12:08:15;13.02;;;4.18;;
41875;SDS011;27555;50.808;4.402;2022-08-19T12:10:41;9.15;;;4.00;;
41875;SDS011;27555;50.808;4.402;2022-08-19T12:13:08;9.45;;;3.70;;
41875;SDS011;27555;50.808;4.402;2022-08-19T12:15:35;9.38;;;3.63;;
41875;SDS011;27555;50.808;4.402;2022-08-19T12:18:03;4.93;;;2.92;;
41875;SDS011;27555;50.808;4.402;2022-08-19T12:20:29;6.80;;;2.92;;
41875;SDS011;27555;50.808;4.402;2022-08-19T12:22:55;4.30;;;2.50;;
41875;SDS011;27555;50.808;4.402;2022-08-19T12:25:21;5.35;;;2.40;;
41875;SDS011;27555;50.808;4.402;2022-08-19T12:27:46;5.05;;;2.63;;
41875;SDS011;27555;50.808;4.402;2022-08-19T12:30:12;6.75;;;2.78;;
41875;SDS011;27555;50.808;4.402;2022-08-19T12:32:39;7.55;;;2.33;;
41875;SDS011;27555;50.808;4.402;2022-08-19T12:35:05;5.88;;;2.55;;
41875;SDS011;27555;50.808;4.402;2022-08-19T12:37:31;3.35;;;1.92;;
41875;SDS011;27555;50.808;4.402;2022-08-19T12:39:57;6.13;;;2.22;;
41875;SDS011;27555;50.808;4.402;2022-08-19T12:42:23;4.05;;;1.55;;
41875;SDS011;27555;50.808;4.402;2022-08-19T12:44:49;5.50;;;1.63;;
41875;SDS011;27555;50.808;4.402;2022-08-19T12:47:15;3.85;;;1.88;;
41875;SDS011;27555;50.808;4.402;2022-08-19T12:49:41;4.95;;;1.63;;
41875;SDS011;27555;50.808;4.402;2022-08-19T12:52:09;4.25;;;1.30;;
41875;SDS011;27555;50.808;4.402;2022-08-19T12:54:35;2.10;;;1.00;;
41875;SDS011;27555;50.808;4.402;2022-08-19T12:57:05;5.22;;;1.73;;
41875;SDS011;27555;50.808;4.402;2022-08-19T12:59:32;2.33;;;1.45;;
41875;SDS011;27555;50.808;4.402;2022-08-19T13:01:59;4.40;;;1.70;;
41875;SDS011;27555;50.808;4.402;2022-08-19T13:04:25;3.42;;;1.48;;
41875;SDS011;27555;50.808;4.402;2022-08-19T13:06:51;4.10;;;1.20;;
41875;SDS011;27555;50.808;4.402;2022-08-19T13:09:16;5.35;;;1.15;;
41875;SDS011;27555;50.808;4.402;2022-08-19T13:11:42;5.75;;;1.60;;
41875;SDS011;27555;50.808;4.402;2022-08-19T13:14:08;1.58;;;1.27;;
41875;SDS011;27555;50.808;4.402;2022-08-19T13:16:36;3.65;;;1.30;;
41875;SDS011;27555;50.808;4.402;2022-08-19T13:19:02;2.22;;;1.20;;
41875;SDS011;27555;50.808;4.402;2022-08-19T13:21:30;2.30;;;1.00;;
41875;SDS011;27555;50.808;4.402;2022-08-19T13:23:55;4.15;;;0.80;;
41875;SDS011;27555;50.808;4.402;2022-08-19T13:26:22;3.42;;;1.10;;
41875;SDS011;27555;50.808;4.402;2022-08-19T13:28:47;3.67;;;1.05;;
41875;SDS011;27555;50.808;4.402;2022-08-19T13:31:33;1.00;;;0.90;;
41875;SDS011;27555;50.808;4.402;2022-08-19T13:34:19;2.25;;;0.77;;
41875;SDS011;27555;50.808;4.402;2022-08-19T13:36:52;4.97;;;1.15;;
41875;SDS011;27555;50.808;4.402;2022-08-19T13:39:18;4.85;;;0.90;;
41875;SDS011;27555;50.808;4.402;2022-08-19T13:41:44;3.60;;;1.17;;
41875;SDS011;27555;50.808;4.402;2022-08-19T13:44:15;4.00;;;1.05;;
41875;SDS011;27555;50.808;4.402;2022-08-19T13:46:43;3.47;;;1.00;;
41875;SDS011;27555;50.808;4.402;2022-08-19T13:49:10;2.28;;;0.90;;
41875;SDS011;27555;50.808;4.402;2022-08-19T13:51:38;6.07;;;1.65;;
41875;SDS011;27555;50.808;4.402;2022-08-19T13:54:07;2.28;;;1.02;;
41875;SDS011;27555;50.808;4.402;2022-08-19T13:56:34;1.50;;;1.10;;
41875;SDS011;27555;50.808;4.402;2022-08-19T13:59:04;3.05;;;1.08;;
41875;SDS011;27555;50.808;4.402;2022-08-19T14:01:31;2.83;;;0.88;;
41875;SDS011;27555;50.808;4.402;2022-08-19T14:03:56;1.80;;;0.90;;
41875;SDS011;27555;50.808;4.402;2022-08-19T14:06:22;3.13;;;1.30;;
41875;SDS011;27555;50.808;4.402;2022-08-19T14:08:48;4.70;;;1.10;;
41875;SDS011;27555;50.808;4.402;2022-08-19T14:11:14;5.40;;;0.70;;
41875;SDS011;27555;50.808;4.402;2022-08-19T14:13:39;2.47;;;0.65;;
41875;SDS011;27555;50.808;4.402;2022-08-19T14:16:08;2.80;;;1.02;;
41875;SDS011;27555;50.808;4.402;2022-08-19T14:21:00;2.15;;;0.90;;
41875;SDS011;27555;50.808;4.402;2022-08-19T14:23:26;7.22;;;0.93;;
41875;SDS011;27555;50.808;4.402;2022-08-19T14:25:51;5.55;;;1.00;;
41875;SDS011;27555;50.808;4.402;2022-08-19T14:28:17;9.98;;;1.42;;
41875;SDS011;27555;50.808;4.402;2022-08-19T14:30:43;4.50;;;1.35;;
41875;SDS011;27555;50.808;4.402;2022-08-19T14:33:09;4.32;;;1.23;;
41875;SDS011;27555;50.808;4.402;2022-08-19T14:35:35;2.28;;;0.98;;
41875;SDS011;27555;50.808;4.402;2022-08-19T14:38:02;2.13;;;1.20;;
41875;SDS011;27555;50.808;4.402;2022-08-19T14:40:30;1.08;;;0.70;;
41875;SDS011;27555;50.808;4.402;2022-08-19T14:42:57;1.30;;;0.50;;
41875;SDS011;27555;50.808;4.402;2022-08-19T14:45:29;2.63;;;0.95;;
41875;SDS011;27555;50.808;4.402;2022-08-19T14:47:56;0.80;;;0.60;;
41875;SDS011;27555;50.808;4.402;2022-08-19T14:50:24;2.35;;;0.63;;
41875;SDS011;27555;50.808;4.402;2022-08-19T14:52:50;13.35;;;1.38;;